sensor_id;sensor_type;location;lat;lon;timestamp;temperature;humidity
25532;DHT22;13429;48.816;9.118;2023-11-22T00:00:08;7.10;95.30
25532;DHT22;13429;48.816;9.118;2023-11-22T00:02:33;7.00;95.20
25532;DHT22;13429;48.816;9.118;2023-11-22T00:05:00;6.80;94.00
25532;DHT22;13429;48.816;9.118;2023-11-22T00:07:25;6.60;94.10
25532;DHT22;13429;48.816;9.118;2023-11-22T00:09:54;6.50;94.00
25532;DHT22;13429;48.816;9.118;2023-11-22T00:12:20;6.40;94.00
25532;DHT22;13429;48.816;9.118;2023-11-22T00:14:46;6.30;93.90
25532;DHT22;13429;48.816;9.118;2023-11-22T00:17:12;6.10;93.90
25532;DHT22;13429;48.816;9.118;2023-11-22T00:19:38;6.10;94.00
25532;DHT22;13429;48.816;9.118;2023-11-22T00:22:04;6.00;93.70
25532;DHT22;13429;48.816;9.118;2023-11-22T00:24:41;5.80;93.50
25532;DHT22;13429;48.816;9.118;2023-11-22T00:27:10;5.80;93.60
25532;DHT22;13429;48.816;9.118;2023-11-22T00:29:35;5.60;93.20
25532;DHT22;13429;48.816;9.118;2023-11-22T00:32:01;5.60;93.40
25532;DHT22;13429;48.816;9.118;2023-11-22T00:34:27;5.50;93.30
25532;DHT22;13429;48.816;9.118;2023-11-22T00:36:53;5.40;93.00
25532;DHT22;13429;48.816;9.118;2023-11-22T00:39:18;5.40;93.20
25532;DHT22;13429;48.816;9.118;2023-11-22T00:41:45;5.40;93.30
25532;DHT22;13429;48.816;9.118;2023-11-22T00:44:11;5.40;93.50
25532;DHT22;13429;48.816;9.118;2023-11-22T00:46:36;5.40;93.30
25532;DHT22;13429;48.816;9.118;2023-11-22T00:49:05;5.30;93.00
25532;DHT22;13429;48.816;9.118;2023-11-22T00:51:34;5.30;93.10
25532;DHT22;13429;48.816;9.118;2023-11-22T00:54:00;5.30;93.20
25532;DHT22;13429;48.816;9.118;2023-11-22T00:56:26;5.20;92.80
25532;DHT22;13429;48.816;9.118;2023-11-22T00:58:52;5.20;93.10
25532;DHT22;13429;48.816;9.118;2023-11-22T01:01:19;5.20;93.10
25532;DHT22;13429;48.816;9.118;2023-11-22T01:03:45;5.00;92.30
25532;DHT22;13429;48.816;9.118;2023-11-22T01:06:12;5.00;92.60
25532;DHT22;13429;48.816;9.118;2023-11-22T01:08:38;4.90;92.50
25532;DHT22;13429;48.816;9.118;2023-11-22T01:11:04;4.90;92.20
25532;DHT22;13429;48.816;9.118;2023-11-22T01:13:31;4.90;92.60
25532;DHT22;13429;48.816;9.118;2023-11-22T01:15:57;4.80;92.70
25532;DHT22;13429;48.816;9.118;2023-11-22T01:18:22;4.90;92.90
25532;DHT22;13429;48.816;9.118;2023-11-22T01:20:48;4.90;92.90
25532;DHT22;13429;48.816;9.118;2023-11-22T01:23:15;4.90;92.70
25532;DHT22;13429;48.816;9.118;2023-11-22T01:25:40;4.90;92.80
25532;DHT22;13429;48.816;9.118;2023-11-22T01:28:06;4.80;92.70
25532;DHT22;13429;48.816;9.118;2023-11-22T01:30:36;4.80;92.60
25532;DHT22;13429;48.816;9.118;2023-11-22T01:33:04;4.80;92.80
25532;DHT22;13429;48.816;9.118;2023-11-22T01:35:29;4.70;92.30
25532;DHT22;13429;48.816;9.118;2023-11-22T01:37:55;4.70;92.40
25532;DHT22;13429;48.816;9.118;2023-11-22T01:40:22;4.60;92.50
25532;DHT22;13429;48.816;9.118;2023-11-22T01:42:48;4.60;92.30
25532;DHT22;13429;48.816;9.118;2023-11-22T01:45:13;4.50;92.10
25532;DHT22;13429;48.816;9.118;2023-11-22T01:47:39;4.50;92.10
25532;DHT22;13429;48.816;9.118;2023-11-22T01:50:06;4.50;92.10
25532;DHT22;13429;48.816;9.118;2023-11-22T01:52:33;4.40;92.30
25532;DHT22;13429;48.816;9.118;2023-11-22T01:55:01;4.40;92.40
25532;DHT22;13429;48.816;9.118;2023-11-22T01:57:30;4.30;91.50
25532;DHT22;13429;48.816;9.118;2023-11-22T01:59:56;4.30;91.10
25532;DHT22;13429;48.816;9.118;2023-11-22T02:02:22;4.30;91.30
25532;DHT22;13429;48.816;9.118;2023-11-22T02:04:47;4.20;90.70
25532;DHT22;13429;48.816;9.118;2023-11-22T02:07:13;4.20;91.10
25532;DHT22;13429;48.816;9.118;2023-11-22T02:09:39;4.20;91.20
25532;DHT22;13429;48.816;9.118;2023-11-22T02:12:04;4.20;90.80
25532;DHT22;13429;48.816;9.118;2023-11-22T02:14:30;4.10;90.40
25532;DHT22;13429;48.816;9.118;2023-11-22T02:16:56;4.10;90.40
25532;DHT22;13429;48.816;9.118;2023-11-22T02:19:24;4.00;90.30
25532;DHT22;13429;48.816;9.118;2023-11-22T02:21:49;4.00;90.30
25532;DHT22;13429;48.816;9.118;2023-11-22T02:24:15;3.90;89.70
25532;DHT22;13429;48.816;9.118;2023-11-22T02:26:45;3.90;89.20
25532;DHT22;13429;48.816;9.118;2023-11-22T02:29:11;3.80;88.90
25532;DHT22;13429;48.816;9.118;2023-11-22T02:31:40;3.80;88.50
25532;DHT22;13429;48.816;9.118;2023-11-22T02:34:06;3.80;89.00
25532;DHT22;13429;48.816;9.118;2023-11-22T02:36:32;3.70;87.90
25532;DHT22;13429;48.816;9.118;2023-11-22T02:38:58;3.80;88.80
25532;DHT22;13429;48.816;9.118;2023-11-22T02:41:23;3.70;88.70
25532;DHT22;13429;48.816;9.118;2023-11-22T02:43:50;3.60;89.00
25532;DHT22;13429;48.816;9.118;2023-11-22T02:46:16;3.70;88.80
25532;DHT22;13429;48.816;9.118;2023-11-22T02:48:42;3.60;88.80
25532;DHT22;13429;48.816;9.118;2023-11-22T02:51:08;3.60;89.00
25532;DHT22;13429;48.816;9.118;2023-11-22T02:53:33;3.50;88.50
25532;DHT22;13429;48.816;9.118;2023-11-22T02:55:59;3.60;89.10
25532;DHT22;13429;48.816;9.118;2023-11-22T02:58:30;3.50;89.00
25532;DHT22;13429;48.816;9.118;2023-11-22T03:00:56;3.50;88.90
25532;DHT22;13429;48.816;9.118;2023-11-22T03:03:23;3.50;89.40
25532;DHT22;13429;48.816;9.118;2023-11-22T03:05:49;3.40;89.50
25532;DHT22;13429;48.816;9.118;2023-11-22T03:08:16;3.40;89.10
25532;DHT22;13429;48.816;9.118;2023-11-22T03:10:41;3.40;89.20
25532;DHT22;13429;48.816;9.118;2023-11-22T03:13:07;3.40;89.40
25532;DHT22;13429;48.816;9.118;2023-11-22T03:15:34;3.30;89.70
25532;DHT22;13429;48.816;9.118;2023-11-22T03:18:00;3.30;90.00
25532;DHT22;13429;48.816;9.118;2023-11-22T03:20:27;3.40;89.90
25532;DHT22;13429;48.816;9.118;2023-11-22T03:22:52;3.30;89.80
25532;DHT22;13429;48.816;9.118;2023-11-22T03:25:18;3.30;90.00
25532;DHT22;13429;48.816;9.118;2023-11-22T03:27:44;3.30;89.70
25532;DHT22;13429;48.816;9.118;2023-11-22T03:30:10;3.30;89.70
25532;DHT22;13429;48.816;9.118;2023-11-22T03:32:40;3.30;89.80
25532;DHT22;13429;48.816;9.118;2023-11-22T03:35:07;3.30;89.90
25532;DHT22;13429;48.816;9.118;2023-11-22T03:37:33;3.30;89.80
25532;DHT22;13429;48.816;9.118;2023-11-22T03:39:58;3.30;89.90
25532;DHT22;13429;48.816;9.118;2023-11-22T03:42:24;3.40;90.00
25532;DHT22;13429;48.816;9.118;2023-11-22T03:44:50;3.40;90.10
25532;DHT22;13429;48.816;9.118;2023-11-22T03:47:16;3.40;90.10
25532;DHT22;13429;48.816;9.118;2023-11-22T03:49:42;3.40;90.40
25532;DHT22;13429;48.816;9.118;2023-11-22T03:52:10;3.40;90.30
25532;DHT22;13429;48.816;9.118;2023-11-22T03:54:36;3.40;90.20
25532;DHT22;13429;48.816;9.118;2023-11-22T03:57:03;3.30;89.70
25532;DHT22;13429;48.816;9.118;2023-11-22T03:59:29;3.40;90.00
25532;DHT22;13429;48.816;9.118;2023-11-22T04:01:54;3.40;90.00
25532;DHT22;13429;48.816;9.118;2023-11-22T04:04:20;3.40;89.40
25532;DHT22;13429;48.816;9.118;2023-11-22T04:06:46;3.40;89.80
25532;DHT22;13429;48.816;9.118;2023-11-22T04:09:12;3.40;89.70
25532;DHT22;13429;48.816;9.118;2023-11-22T04:11:38;3.40;89.40
25532;DHT22;13429;48.816;9.118;2023-11-22T04:14:04;3.30;89.10
25532;DHT22;13429;48.816;9.118;2023-11-22T04:16:30;3.30;89.50
25532;DHT22;13429;48.816;9.118;2023-11-22T04:18:56;3.40;89.80
25532;DHT22;13429;48.816;9.118;2023-11-22T04:21:22;3.40;89.90
25532;DHT22;13429;48.816;9.118;2023-11-22T04:23:48;3.40;90.00
25532;DHT22;13429;48.816;9.118;2023-11-22T04:26:13;3.40;90.00
25532;DHT22;13429;48.816;9.118;2023-11-22T04:28:39;3.40;90.10
25532;DHT22;13429;48.816;9.118;2023-11-22T04:31:05;3.40;90.00
25532;DHT22;13429;48.816;9.118;2023-11-22T04:33:30;3.40;89.50
25532;DHT22;13429;48.816;9.118;2023-11-22T04:35:56;3.30;89.30
25532;DHT22;13429;48.816;9.118;2023-11-22T04:38:22;3.40;89.80
25532;DHT22;13429;48.816;9.118;2023-11-22T04:40:48;3.30;89.50
25532;DHT22;13429;48.816;9.118;2023-11-22T04:43:13;3.40;89.40
25532;DHT22;13429;48.816;9.118;2023-11-22T04:45:39;3.30;89.00
25532;DHT22;13429;48.816;9.118;2023-11-22T04:48:05;3.30;88.90
25532;DHT22;13429;48.816;9.118;2023-11-22T04:50:35;3.30;88.30
25532;DHT22;13429;48.816;9.118;2023-11-22T04:53:01;3.20;88.40
25532;DHT22;13429;48.816;9.118;2023-11-22T04:55:27;3.20;88.30
25532;DHT22;13429;48.816;9.118;2023-11-22T04:57:54;3.20;88.80
25532;DHT22;13429;48.816;9.118;2023-11-22T05:00:21;3.10;88.50
25532;DHT22;13429;48.816;9.118;2023-11-22T05:02:48;3.20;88.90
25532;DHT22;13429;48.816;9.118;2023-11-22T05:05:14;3.20;88.90
25532;DHT22;13429;48.816;9.118;2023-11-22T05:07:39;3.10;88.90
25532;DHT22;13429;48.816;9.118;2023-11-22T05:10:05;3.20;88.90
25532;DHT22;13429;48.816;9.118;2023-11-22T05:12:33;3.10;89.00
25532;DHT22;13429;48.816;9.118;2023-11-22T05:14:59;3.10;88.60
25532;DHT22;13429;48.816;9.118;2023-11-22T05:17:24;3.10;89.10
25532;DHT22;13429;48.816;9.118;2023-11-22T05:19:50;3.10;89.20
25532;DHT22;13429;48.816;9.118;2023-11-22T05:22:17;3.10;88.90
25532;DHT22;13429;48.816;9.118;2023-11-22T05:24:42;3.10;89.10
25532;DHT22;13429;48.816;9.118;2023-11-22T05:27:08;3.10;89.00
25532;DHT22;13429;48.816;9.118;2023-11-22T05:29:34;3.10;88.60
25532;DHT22;13429;48.816;9.118;2023-11-22T05:32:01;3.00;88.70
25532;DHT22;13429;48.816;9.118;2023-11-22T05:34:26;3.00;89.20
25532;DHT22;13429;48.816;9.118;2023-11-22T05:36:52;3.00;89.50
25532;DHT22;13429;48.816;9.118;2023-11-22T05:39:18;3.00;89.90
25532;DHT22;13429;48.816;9.118;2023-11-22T05:41:44;3.00;89.70
25532;DHT22;13429;48.816;9.118;2023-11-22T05:44:10;2.90;90.00
25532;DHT22;13429;48.816;9.118;2023-11-22T05:46:35;2.90;89.90
25532;DHT22;13429;48.816;9.118;2023-11-22T05:49:02;2.90;89.80
25532;DHT22;13429;48.816;9.118;2023-11-22T05:51:27;2.90;90.00
25532;DHT22;13429;48.816;9.118;2023-11-22T05:53:53;2.90;89.70
25532;DHT22;13429;48.816;9.118;2023-11-22T05:56:18;2.80;90.00
25532;DHT22;13429;48.816;9.118;2023-11-22T05:58:44;2.80;89.90
25532;DHT22;13429;48.816;9.118;2023-11-22T06:01:10;2.80;90.00
25532;DHT22;13429;48.816;9.118;2023-11-22T06:03:39;2.80;90.10
25532;DHT22;13429;48.816;9.118;2023-11-22T06:06:05;2.90;90.10
25532;DHT22;13429;48.816;9.118;2023-11-22T06:08:32;2.90;90.00
25532;DHT22;13429;48.816;9.118;2023-11-22T06:10:57;2.90;89.80
25532;DHT22;13429;48.816;9.118;2023-11-22T06:13:25;2.80;89.80
25532;DHT22;13429;48.816;9.118;2023-11-22T06:15:50;2.90;89.90
25532;DHT22;13429;48.816;9.118;2023-11-22T06:18:16;2.90;89.80
25532;DHT22;13429;48.816;9.118;2023-11-22T06:20:42;2.80;89.80
25532;DHT22;13429;48.816;9.118;2023-11-22T06:23:08;2.90;89.60
25532;DHT22;13429;48.816;9.118;2023-11-22T06:25:34;2.80;89.50
25532;DHT22;13429;48.816;9.118;2023-11-22T06:28:02;2.80;89.00
25532;DHT22;13429;48.816;9.118;2023-11-22T06:30:28;2.80;89.40
25532;DHT22;13429;48.816;9.118;2023-11-22T06:32:53;2.80;89.00
25532;DHT22;13429;48.816;9.118;2023-11-22T06:35:19;2.80;89.00
25532;DHT22;13429;48.816;9.118;2023-11-22T06:37:45;2.80;89.30
25532;DHT22;13429;48.816;9.118;2023-11-22T06:40:11;2.80;89.40
25532;DHT22;13429;48.816;9.118;2023-11-22T06:42:42;2.80;89.10
25532;DHT22;13429;48.816;9.118;2023-11-22T06:45:08;2.70;88.40
25532;DHT22;13429;48.816;9.118;2023-11-22T06:47:41;2.80;88.30
25532;DHT22;13429;48.816;9.118;2023-11-22T06:50:08;2.70;87.80
25532;DHT22;13429;48.816;9.118;2023-11-22T06:52:38;2.60;87.90
25532;DHT22;13429;48.816;9.118;2023-11-22T06:55:08;2.60;87.80
25532;DHT22;13429;48.816;9.118;2023-11-22T06:57:34;2.50;87.10
25532;DHT22;13429;48.816;9.118;2023-11-22T07:00:00;2.50;87.20
25532;DHT22;13429;48.816;9.118;2023-11-22T07:02:35;2.40;86.30
25532;DHT22;13429;48.816;9.118;2023-11-22T07:05:02;2.40;86.00
25532;DHT22;13429;48.816;9.118;2023-11-22T07:07:35;2.30;86.40
25532;DHT22;13429;48.816;9.118;2023-11-22T07:10:01;2.40;86.70
25532;DHT22;13429;48.816;9.118;2023-11-22T07:12:27;2.30;86.00
25532;DHT22;13429;48.816;9.118;2023-11-22T07:14:52;2.30;85.80
25532;DHT22;13429;48.816;9.118;2023-11-22T07:17:18;2.30;85.90
25532;DHT22;13429;48.816;9.118;2023-11-22T07:19:44;2.30;85.90
25532;DHT22;13429;48.816;9.118;2023-11-22T07:22:14;2.30;85.70
25532;DHT22;13429;48.816;9.118;2023-11-22T07:24:47;2.20;85.60
25532;DHT22;13429;48.816;9.118;2023-11-22T07:27:17;2.30;86.60
25532;DHT22;13429;48.816;9.118;2023-11-22T07:29:43;2.20;85.80
25532;DHT22;13429;48.816;9.118;2023-11-22T07:32:10;2.20;86.20
25532;DHT22;13429;48.816;9.118;2023-11-22T07:34:38;2.20;86.10
25532;DHT22;13429;48.816;9.118;2023-11-22T07:37:05;2.20;86.30
25532;DHT22;13429;48.816;9.118;2023-11-22T07:39:32;2.20;85.90
25532;DHT22;13429;48.816;9.118;2023-11-22T07:41:58;2.30;86.20
25532;DHT22;13429;48.816;9.118;2023-11-22T07:44:24;2.20;85.50
25532;DHT22;13429;48.816;9.118;2023-11-22T07:46:50;2.20;85.90
25532;DHT22;13429;48.816;9.118;2023-11-22T07:49:22;2.20;86.50
25532;DHT22;13429;48.816;9.118;2023-11-22T07:51:48;2.20;86.00
25532;DHT22;13429;48.816;9.118;2023-11-22T07:54:18;2.20;85.50
25532;DHT22;13429;48.816;9.118;2023-11-22T07:56:44;2.10;85.90
25532;DHT22;13429;48.816;9.118;2023-11-22T07:59:12;2.20;86.10
25532;DHT22;13429;48.816;9.118;2023-11-22T08:01:39;2.20;86.20
25532;DHT22;13429;48.816;9.118;2023-11-22T08:04:04;2.20;86.00
25532;DHT22;13429;48.816;9.118;2023-11-22T08:06:31;2.10;85.80
25532;DHT22;13429;48.816;9.118;2023-11-22T08:08:58;2.10;85.70
25532;DHT22;13429;48.816;9.118;2023-11-22T08:11:27;2.10;85.20
25532;DHT22;13429;48.816;9.118;2023-11-22T08:13:53;2.10;85.20
25532;DHT22;13429;48.816;9.118;2023-11-22T08:16:23;2.10;85.00
25532;DHT22;13429;48.816;9.118;2023-11-22T08:18:49;2.10;85.20
25532;DHT22;13429;48.816;9.118;2023-11-22T08:21:15;2.10;85.10
25532;DHT22;13429;48.816;9.118;2023-11-22T08:23:40;2.30;85.70
25532;DHT22;13429;48.816;9.118;2023-11-22T08:26:06;2.30;85.50
25532;DHT22;13429;48.816;9.118;2023-11-22T08:28:34;2.30;84.30
25532;DHT22;13429;48.816;9.118;2023-11-22T08:30:59;2.30;84.50
25532;DHT22;13429;48.816;9.118;2023-11-22T08:33:26;2.30;84.40
25532;DHT22;13429;48.816;9.118;2023-11-22T08:35:52;2.30;85.20
25532;DHT22;13429;48.816;9.118;2023-11-22T08:38:24;2.40;84.90
25532;DHT22;13429;48.816;9.118;2023-11-22T08:40:50;2.50;84.70
25532;DHT22;13429;48.816;9.118;2023-11-22T08:43:15;2.50;83.80
25532;DHT22;13429;48.816;9.118;2023-11-22T08:45:41;2.60;84.20
25532;DHT22;13429;48.816;9.118;2023-11-22T08:48:09;2.60;84.80
25532;DHT22;13429;48.816;9.118;2023-11-22T08:50:35;2.60;83.30
25532;DHT22;13429;48.816;9.118;2023-11-22T08:53:00;2.50;83.50
25532;DHT22;13429;48.816;9.118;2023-11-22T08:55:26;2.50;83.70
25532;DHT22;13429;48.816;9.118;2023-11-22T08:57:52;2.50;83.30
25532;DHT22;13429;48.816;9.118;2023-11-22T09:00:18;2.40;83.00
25532;DHT22;13429;48.816;9.118;2023-11-22T09:02:51;2.40;83.90
25532;DHT22;13429;48.816;9.118;2023-11-22T09:05:17;2.50;83.60
25532;DHT22;13429;48.816;9.118;2023-11-22T09:07:44;2.40;82.90
25532;DHT22;13429;48.816;9.118;2023-11-22T09:10:10;2.40;82.90
25532;DHT22;13429;48.816;9.118;2023-11-22T09:12:39;2.40;82.30
25532;DHT22;13429;48.816;9.118;2023-11-22T09:15:09;2.50;83.10
25532;DHT22;13429;48.816;9.118;2023-11-22T09:17:39;2.50;82.40
25532;DHT22;13429;48.816;9.118;2023-11-22T09:20:17;2.50;83.00
25532;DHT22;13429;48.816;9.118;2023-11-22T09:22:49;2.50;82.30
25532;DHT22;13429;48.816;9.118;2023-11-22T09:25:15;2.50;82.80
25532;DHT22;13429;48.816;9.118;2023-11-22T09:27:45;2.50;83.00
25532;DHT22;13429;48.816;9.118;2023-11-22T09:30:18;2.50;82.20
25532;DHT22;13429;48.816;9.118;2023-11-22T09:33:09;2.60;82.90
25532;DHT22;13429;48.816;9.118;2023-11-22T09:35:36;2.80;82.80
25532;DHT22;13429;48.816;9.118;2023-11-22T09:38:05;2.70;81.60
25532;DHT22;13429;48.816;9.118;2023-11-22T09:40:46;2.80;82.40
25532;DHT22;13429;48.816;9.118;2023-11-22T09:43:12;2.80;81.60
25532;DHT22;13429;48.816;9.118;2023-11-22T09:45:48;2.60;81.90
25532;DHT22;13429;48.816;9.118;2023-11-22T09:48:19;2.60;82.10
25532;DHT22;13429;48.816;9.118;2023-11-22T09:51:09;2.60;81.50
25532;DHT22;13429;48.816;9.118;2023-11-22T09:56:09;2.70;82.10
25532;DHT22;13429;48.816;9.118;2023-11-22T09:58:40;2.80;82.00
25532;DHT22;13429;48.816;9.118;2023-11-22T10:01:13;2.60;81.80
25532;DHT22;13429;48.816;9.118;2023-11-22T10:03:40;2.80;82.40
25532;DHT22;13429;48.816;9.118;2023-11-22T10:06:06;2.80;81.90
25532;DHT22;13429;48.816;9.118;2023-11-22T10:08:32;2.80;82.20
25532;DHT22;13429;48.816;9.118;2023-11-22T10:10:59;2.80;81.60
25532;DHT22;13429;48.816;9.118;2023-11-22T10:13:26;2.80;80.80
25532;DHT22;13429;48.816;9.118;2023-11-22T10:15:52;2.70;81.90
25532;DHT22;13429;48.816;9.118;2023-11-22T10:18:19;2.80;81.60
25532;DHT22;13429;48.816;9.118;2023-11-22T10:20:47;2.80;81.60
25532;DHT22;13429;48.816;9.118;2023-11-22T10:23:17;2.80;81.90
25532;DHT22;13429;48.816;9.118;2023-11-22T10:25:51;2.90;81.30
25532;DHT22;13429;48.816;9.118;2023-11-22T10:28:21;3.00;80.50
25532;DHT22;13429;48.816;9.118;2023-11-22T10:30:49;3.10;80.10
25532;DHT22;13429;48.816;9.118;2023-11-22T10:33:18;3.00;80.60
25532;DHT22;13429;48.816;9.118;2023-11-22T10:35:49;3.00;80.30
25532;DHT22;13429;48.816;9.118;2023-11-22T10:38:17;3.10;80.20
25532;DHT22;13429;48.816;9.118;2023-11-22T10:40:44;3.10;80.50
25532;DHT22;13429;48.816;9.118;2023-11-22T10:43:14;3.00;79.50
25532;DHT22;13429;48.816;9.118;2023-11-22T10:45:42;3.00;80.00
25532;DHT22;13429;48.816;9.118;2023-11-22T10:48:15;3.00;79.80
25532;DHT22;13429;48.816;9.118;2023-11-22T10:50:44;3.10;79.90
25532;DHT22;13429;48.816;9.118;2023-11-22T10:53:12;3.10;80.10
25532;DHT22;13429;48.816;9.118;2023-11-22T10:55:45;3.20;80.00
25532;DHT22;13429;48.816;9.118;2023-11-22T10:58:14;3.30;79.70
25532;DHT22;13429;48.816;9.118;2023-11-22T11:00:41;3.40;80.00
25532;DHT22;13429;48.816;9.118;2023-11-22T11:03:28;3.50;80.10
25532;DHT22;13429;48.816;9.118;2023-11-22T11:06:04;3.50;79.20
25532;DHT22;13429;48.816;9.118;2023-11-22T11:08:32;3.40;78.10
25532;DHT22;13429;48.816;9.118;2023-11-22T11:10:59;3.30;79.50
25532;DHT22;13429;48.816;9.118;2023-11-22T11:13:28;3.30;80.20
25532;DHT22;13429;48.816;9.118;2023-11-22T11:15:55;3.40;80.00
25532;DHT22;13429;48.816;9.118;2023-11-22T11:18:21;3.40;79.40
25532;DHT22;13429;48.816;9.118;2023-11-22T11:20:51;3.40;78.90
25532;DHT22;13429;48.816;9.118;2023-11-22T11:23:21;3.40;79.30
25532;DHT22;13429;48.816;9.118;2023-11-22T11:25:53;3.50;79.80
25532;DHT22;13429;48.816;9.118;2023-11-22T11:28:19;3.40;79.90
25532;DHT22;13429;48.816;9.118;2023-11-22T11:30:49;3.40;79.40
25532;DHT22;13429;48.816;9.118;2023-11-22T11:33:26;3.40;79.70
25532;DHT22;13429;48.816;9.118;2023-11-22T11:35:52;3.50;79.50
25532;DHT22;13429;48.816;9.118;2023-11-22T11:38:21;3.40;78.50
25532;DHT22;13429;48.816;9.118;2023-11-22T11:40:48;3.40;79.70
25532;DHT22;13429;48.816;9.118;2023-11-22T11:43:14;3.40;78.90
25532;DHT22;13429;48.816;9.118;2023-11-22T11:45:42;3.40;79.20
25532;DHT22;13429;48.816;9.118;2023-11-22T11:48:16;3.50;79.70
25532;DHT22;13429;48.816;9.118;2023-11-22T11:50:42;3.60;79.10
25532;DHT22;13429;48.816;9.118;2023-11-22T11:53:09;3.60;79.40
25532;DHT22;13429;48.816;9.118;2023-11-22T11:55:36;3.50;79.00
25532;DHT22;13429;48.816;9.118;2023-11-22T11:58:06;3.40;79.90
25532;DHT22;13429;48.816;9.118;2023-11-22T12:00:36;3.50;80.00
25532;DHT22;13429;48.816;9.118;2023-11-22T12:03:08;3.50;79.80
25532;DHT22;13429;48.816;9.118;2023-11-22T12:05:38;3.50;80.20
25532;DHT22;13429;48.816;9.118;2023-11-22T12:08:04;3.40;79.50
25532;DHT22;13429;48.816;9.118;2023-11-22T12:10:30;3.50;79.80
25532;DHT22;13429;48.816;9.118;2023-11-22T12:12:56;3.60;78.40
25532;DHT22;13429;48.816;9.118;2023-11-22T12:15:22;3.40;78.80
25532;DHT22;13429;48.816;9.118;2023-11-22T12:17:51;3.50;79.00
25532;DHT22;13429;48.816;9.118;2023-11-22T12:20:19;3.60;78.80
25532;DHT22;13429;48.816;9.118;2023-11-22T12:22:47;3.50;78.10
25532;DHT22;13429;48.816;9.118;2023-11-22T12:25:14;3.60;79.10
25532;DHT22;13429;48.816;9.118;2023-11-22T12:27:44;3.60;78.90
25532;DHT22;13429;48.816;9.118;2023-11-22T12:30:27;3.60;78.80
25532;DHT22;13429;48.816;9.118;2023-11-22T12:32:53;3.50;78.20
25532;DHT22;13429;48.816;9.118;2023-11-22T12:35:19;3.40;79.00
25532;DHT22;13429;48.816;9.118;2023-11-22T12:37:45;3.50;79.30
25532;DHT22;13429;48.816;9.118;2023-11-22T12:40:12;3.60;79.00
25532;DHT22;13429;48.816;9.118;2023-11-22T12:42:49;3.60;78.60
25532;DHT22;13429;48.816;9.118;2023-11-22T12:45:22;3.50;77.60
25532;DHT22;13429;48.816;9.118;2023-11-22T12:47:52;3.50;77.90
25532;DHT22;13429;48.816;9.118;2023-11-22T12:53:08;3.40;78.10
25532;DHT22;13429;48.816;9.118;2023-11-22T12:55:37;3.30;78.10
25532;DHT22;13429;48.816;9.118;2023-11-22T12:58:02;3.20;79.10
25532;DHT22;13429;48.816;9.118;2023-11-22T13:00:29;3.20;79.10
25532;DHT22;13429;48.816;9.118;2023-11-22T13:02:58;3.20;78.30
25532;DHT22;13429;48.816;9.118;2023-11-22T13:05:24;3.20;78.60
25532;DHT22;13429;48.816;9.118;2023-11-22T13:07:50;3.10;78.40
25532;DHT22;13429;48.816;9.118;2023-11-22T13:10:16;3.00;79.10
25532;DHT22;13429;48.816;9.118;2023-11-22T13:12:43;3.20;79.10
25532;DHT22;13429;48.816;9.118;2023-11-22T13:15:12;3.20;78.40
25532;DHT22;13429;48.816;9.118;2023-11-22T13:17:38;3.10;79.00
25532;DHT22;13429;48.816;9.118;2023-11-22T13:20:08;3.10;78.80
25532;DHT22;13429;48.816;9.118;2023-11-22T13:22:43;3.20;79.20
25532;DHT22;13429;48.816;9.118;2023-11-22T13:25:10;3.10;79.00
25532;DHT22;13429;48.816;9.118;2023-11-22T13:27:39;3.10;78.90
25532;DHT22;13429;48.816;9.118;2023-11-22T13:30:06;3.20;79.40
25532;DHT22;13429;48.816;9.118;2023-11-22T13:32:32;3.20;79.50
25532;DHT22;13429;48.816;9.118;2023-11-22T13:34:58;3.20;79.10
25532;DHT22;13429;48.816;9.118;2023-11-22T13:37:24;3.20;79.50
25532;DHT22;13429;48.816;9.118;2023-11-22T13:39:51;3.20;78.70
25532;DHT22;13429;48.816;9.118;2023-11-22T13:42:16;3.20;79.10
25532;DHT22;13429;48.816;9.118;2023-11-22T13:44:42;3.20;78.60
25532;DHT22;13429;48.816;9.118;2023-11-22T13:47:10;3.30;78.60
25532;DHT22;13429;48.816;9.118;2023-11-22T13:49:36;3.10;78.20
25532;DHT22;13429;48.816;9.118;2023-11-22T13:52:05;3.20;78.90
25532;DHT22;13429;48.816;9.118;2023-11-22T13:54:31;3.20;78.60
25532;DHT22;13429;48.816;9.118;2023-11-22T13:56:59;3.20;78.80
25532;DHT22;13429;48.816;9.118;2023-11-22T13:59:25;3.20;78.80
25532;DHT22;13429;48.816;9.118;2023-11-22T14:01:51;3.20;78.60
25532;DHT22;13429;48.816;9.118;2023-11-22T14:04:17;3.20;79.10
25532;DHT22;13429;48.816;9.118;2023-11-22T14:06:43;3.20;78.50
25532;DHT22;13429;48.816;9.118;2023-11-22T14:09:09;3.20;79.00
25532;DHT22;13429;48.816;9.118;2023-11-22T14:11:38;3.10;78.70
25532;DHT22;13429;48.816;9.118;2023-11-22T14:14:03;3.10;78.90
25532;DHT22;13429;48.816;9.118;2023-11-22T14:16:29;3.10;79.10
25532;DHT22;13429;48.816;9.118;2023-11-22T14:18:59;3.10;78.80
25532;DHT22;13429;48.816;9.118;2023-11-22T14:21:25;3.10;79.40
25532;DHT22;13429;48.816;9.118;2023-11-22T14:23:51;3.00;78.60
25532;DHT22;13429;48.816;9.118;2023-11-22T14:26:18;3.00;78.80
25532;DHT22;13429;48.816;9.118;2023-11-22T14:28:44;2.90;78.60
25532;DHT22;13429;48.816;9.118;2023-11-22T14:31:09;2.90;78.90
25532;DHT22;13429;48.816;9.118;2023-11-22T14:33:36;2.90;79.00
25532;DHT22;13429;48.816;9.118;2023-11-22T14:36:01;2.90;79.40
25532;DHT22;13429;48.816;9.118;2023-11-22T14:38:27;2.90;79.20
25532;DHT22;13429;48.816;9.118;2023-11-22T14:40:53;2.90;78.80
25532;DHT22;13429;48.816;9.118;2023-11-22T14:43:19;2.90;79.00
25532;DHT22;13429;48.816;9.118;2023-11-22T14:45:45;2.90;79.00
25532;DHT22;13429;48.816;9.118;2023-11-22T14:48:11;2.90;79.30
25532;DHT22;13429;48.816;9.118;2023-11-22T14:50:38;2.90;79.20
25532;DHT22;13429;48.816;9.118;2023-11-22T14:53:06;2.90;79.10
25532;DHT22;13429;48.816;9.118;2023-11-22T14:55:33;2.80;79.50
25532;DHT22;13429;48.816;9.118;2023-11-22T14:58:03;2.90;79.40
25532;DHT22;13429;48.816;9.118;2023-11-22T15:00:30;2.90;79.00
25532;DHT22;13429;48.816;9.118;2023-11-22T15:02:56;2.80;79.10
25532;DHT22;13429;48.816;9.118;2023-11-22T15:05:22;2.80;79.60
25532;DHT22;13429;48.816;9.118;2023-11-22T15:07:48;2.80;80.00
25532;DHT22;13429;48.816;9.118;2023-11-22T15:10:20;2.70;80.00
25532;DHT22;13429;48.816;9.118;2023-11-22T15:12:46;2.70;79.80
25532;DHT22;13429;48.816;9.118;2023-11-22T15:15:12;2.70;79.40
25532;DHT22;13429;48.816;9.118;2023-11-22T15:17:38;2.70;79.50
25532;DHT22;13429;48.816;9.118;2023-11-22T15:20:05;2.70;79.40
25532;DHT22;13429;48.816;9.118;2023-11-22T15:22:31;2.60;79.70
25532;DHT22;13429;48.816;9.118;2023-11-22T15:24:56;2.60;79.80
25532;DHT22;13429;48.816;9.118;2023-11-22T15:27:22;2.60;80.30
25532;DHT22;13429;48.816;9.118;2023-11-22T15:29:47;2.60;80.00
25532;DHT22;13429;48.816;9.118;2023-11-22T15:32:13;2.60;79.50
25532;DHT22;13429;48.816;9.118;2023-11-22T15:34:39;2.60;79.70
25532;DHT22;13429;48.816;9.118;2023-11-22T15:37:05;2.50;80.10
25532;DHT22;13429;48.816;9.118;2023-11-22T15:39:30;2.60;79.60
25532;DHT22;13429;48.816;9.118;2023-11-22T15:41:56;2.60;79.30
25532;DHT22;13429;48.816;9.118;2023-11-22T15:44:21;2.60;78.30
25532;DHT22;13429;48.816;9.118;2023-11-22T15:46:47;2.50;78.70
25532;DHT22;13429;48.816;9.118;2023-11-22T15:49:13;2.50;78.10